createdAt,value
2023-02-03T00:02:26.282Z,16.43
2023-02-03T00:04:53.985Z,16.77
2023-02-03T00:07:21.755Z,16.23
2023-02-03T00:09:49.361Z,15.93
2023-02-03T00:12:16.940Z,19.97
2023-02-03T00:14:44.647Z,16.27
2023-02-03T00:17:12.255Z,16.10
2023-02-03T00:19:40.009Z,15.13
2023-02-03T00:22:07.769Z,15.93
2023-02-03T00:24:35.563Z,15.40
2023-02-03T00:27:03.298Z,16.97
2023-02-03T00:29:30.983Z,16.03
2023-02-03T00:32:01.962Z,15.80
2023-02-03T00:34:32.653Z,15.43
2023-02-03T00:37:01.103Z,15.90
2023-02-03T00:39:28.930Z,15.40
2023-02-03T00:41:56.867Z,15.73
2023-02-03T00:44:24.821Z,16.03
2023-02-03T00:46:52.786Z,15.60
2023-02-03T00:49:20.718Z,15.47
2023-02-03T00:51:48.702Z,15.63
2023-02-03T00:54:16.794Z,15.00
2023-02-03T00:56:44.906Z,15.90
2023-02-03T00:59:12.935Z,14.77
2023-02-03T01:01:40.981Z,15.90
2023-02-03T01:04:09.000Z,14.67
2023-02-03T01:06:36.957Z,14.37
2023-02-03T01:09:04.975Z,16.37
2023-02-03T01:11:33.826Z,15.67
2023-02-03T01:14:01.889Z,15.07
2023-02-03T01:16:31.355Z,14.47
2023-02-03T01:18:59.411Z,14.43
2023-02-03T01:21:27.992Z,14.20
2023-02-03T01:23:56.030Z,13.83
2023-02-03T01:26:24.721Z,13.63
2023-02-03T01:28:56.786Z,14.57
2023-02-03T01:31:27.083Z,14.47
2023-02-03T01:33:55.786Z,13.10
2023-02-03T01:36:25.000Z,13.97
2023-02-03T01:38:53.465Z,13.70
2023-02-03T01:41:23.490Z,13.30
2023-02-03T01:43:53.748Z,13.40
2023-02-03T01:46:26.551Z,13.73
2023-02-03T01:48:57.447Z,13.50
2023-02-03T01:51:25.165Z,13.73
2023-02-03T01:53:53.248Z,14.00
2023-02-03T01:56:20.768Z,13.33
2023-02-03T01:58:50.060Z,12.87
2023-02-03T02:01:19.507Z,12.57
2023-02-03T02:03:50.885Z,12.13
2023-02-03T02:06:19.547Z,12.80
2023-02-03T02:08:52.733Z,12.60
2023-02-03T02:11:21.791Z,11.37
2023-02-03T02:13:52.181Z,11.80
2023-02-03T02:16:25.913Z,11.47
2023-02-03T02:19:12.281Z,11.80
2023-02-03T02:21:56.288Z,11.47
2023-02-03T02:24:27.757Z,11.13
2023-02-03T02:27:14.872Z,10.93
2023-02-03T02:29:43.572Z,11.37
2023-02-03T02:32:27.303Z,11.37
2023-02-03T02:35:02.678Z,11.43
2023-02-03T02:37:37.882Z,11.33
2023-02-03T02:40:15.608Z,10.67
2023-02-03T02:43:07.136Z,11.07
2023-02-03T02:45:41.939Z,9.97
2023-02-03T02:48:15.572Z,10.37
2023-02-03T02:50:47.455Z,10.93
2023-02-03T02:53:17.152Z,10.30
2023-02-03T02:55:47.317Z,11.00
2023-02-03T02:58:16.850Z,10.37
2023-02-03T03:00:46.706Z,10.27
2023-02-03T03:03:21.978Z,9.07
2023-02-03T03:05:53.113Z,9.30
2023-02-03T03:08:25.781Z,9.33
2023-02-03T03:10:56.793Z,8.37
2023-02-03T03:13:28.684Z,9.13
2023-02-03T03:15:57.913Z,9.17
2023-02-03T03:18:33.844Z,7.43
2023-02-03T03:21:06.078Z,9.73
2023-02-03T03:23:40.011Z,8.00
2023-02-03T03:26:18.177Z,8.40
2023-02-03T03:28:52.956Z,8.30
2023-02-03T03:31:23.523Z,7.67
2023-02-03T03:33:52.663Z,8.50
2023-02-03T03:36:31.187Z,8.13
2023-02-03T03:39:06.901Z,7.23
2023-02-03T03:41:50.580Z,6.77
2023-02-03T03:44:20.830Z,6.93
2023-02-03T03:46:56.985Z,7.47
2023-02-03T03:49:27.153Z,6.87
2023-02-03T03:52:00.039Z,8.33
2023-02-03T03:54:30.400Z,6.33
2023-02-03T03:57:07.369Z,6.77
2023-02-03T03:59:39.273Z,6.60
2023-02-03T04:02:07.526Z,6.27
2023-02-03T04:04:36.837Z,6.03
2023-02-03T04:07:06.070Z,6.80
2023-02-03T04:09:36.533Z,6.40
2023-02-03T04:12:06.214Z,5.67
2023-02-03T04:14:39.008Z,6.20
2023-02-03T04:17:08.276Z,6.57
2023-02-03T04:19:36.298Z,5.57
2023-02-03T04:22:04.255Z,5.27
2023-02-03T04:24:32.152Z,6.57
2023-02-03T04:27:00.117Z,6.17
2023-02-03T04:29:28.097Z,5.97
2023-02-03T04:31:56.042Z,5.80
2023-02-03T04:34:23.938Z,5.80
2023-02-03T04:36:51.753Z,6.20
2023-02-03T04:39:19.579Z,6.60
2023-02-03T04:41:47.215Z,5.10
2023-02-03T04:44:14.963Z,4.57
2023-02-03T04:46:42.671Z,5.33
2023-02-03T04:49:11.720Z,5.37
2023-02-03T04:51:39.465Z,4.70
2023-02-03T04:54:07.234Z,4.80
2023-02-03T04:56:34.949Z,4.70
2023-02-03T04:59:02.636Z,5.07
2023-02-03T05:01:30.447Z,4.97
2023-02-03T05:03:58.151Z,4.80
2023-02-03T05:06:26.511Z,4.60
2023-02-03T05:08:54.683Z,5.57
2023-02-03T05:11:25.209Z,4.67
2023-02-03T05:13:53.157Z,4.70
2023-02-03T05:16:20.889Z,4.90
2023-02-03T05:18:48.801Z,4.13
2023-02-03T05:21:16.617Z,4.17
2023-02-03T05:23:44.302Z,4.97
2023-02-03T05:26:12.254Z,4.03
2023-02-03T05:28:39.915Z,4.03
2023-02-03T05:31:07.711Z,3.87
2023-02-03T05:33:35.579Z,4.03
2023-02-03T05:36:03.250Z,3.90
2023-02-03T05:38:30.924Z,4.00
2023-02-03T05:41:17.206Z,3.93
2023-02-03T05:43:44.979Z,3.60
2023-02-03T05:46:12.890Z,3.80
2023-02-03T05:48:40.695Z,3.93
2023-02-03T05:51:08.495Z,3.10
2023-02-03T05:53:36.286Z,4.30
2023-02-03T05:56:04.086Z,3.93
2023-02-03T05:58:31.986Z,3.93
2023-02-03T06:00:59.787Z,3.47
2023-02-03T06:03:27.904Z,3.10
2023-02-03T06:05:55.755Z,3.67
2023-02-03T06:08:23.583Z,4.30
2023-02-03T06:10:51.452Z,4.27
2023-02-03T06:13:19.349Z,4.53
2023-02-03T06:15:47.239Z,4.53
2023-02-03T06:18:15.118Z,4.43
2023-02-03T06:20:43.060Z,3.87
2023-02-03T06:23:11.108Z,4.90
2023-02-03T06:25:39.333Z,3.83
2023-02-03T06:28:07.654Z,4.20
2023-02-03T06:30:35.967Z,3.83
2023-02-03T06:33:04.204Z,3.60
2023-02-03T06:35:32.534Z,4.40
2023-02-03T06:38:01.136Z,4.43
2023-02-03T06:40:28.355Z,4.10
2023-02-03T06:42:55.801Z,4.20
2023-02-03T06:45:24.883Z,4.43
2023-02-03T06:47:53.557Z,3.90
2023-02-03T06:50:21.946Z,4.80
2023-02-03T06:52:51.059Z,4.90
2023-02-03T06:55:19.136Z,5.17
2023-02-03T06:57:47.754Z,4.00
2023-02-03T07:00:18.845Z,4.33
2023-02-03T07:02:47.822Z,4.30
2023-02-03T07:05:15.908Z,4.43
2023-02-03T07:07:43.913Z,3.97
2023-02-03T07:10:12.069Z,4.43
2023-02-03T07:12:40.361Z,5.23
2023-02-03T07:15:09.179Z,5.13
2023-02-03T07:17:37.906Z,4.90
2023-02-03T07:20:06.082Z,5.20
2023-02-03T07:22:33.953Z,4.70
2023-02-03T07:25:01.945Z,4.77
2023-02-03T07:27:29.795Z,5.20
2023-02-03T07:29:57.299Z,5.07
2023-02-03T07:32:24.704Z,4.60
2023-02-03T07:34:52.034Z,5.30
2023-02-03T07:37:19.252Z,4.77
2023-02-03T07:39:47.106Z,5.50
2023-02-03T07:42:14.359Z,5.33
2023-02-03T07:44:41.008Z,5.27
2023-02-03T07:47:08.207Z,5.17
2023-02-03T07:49:35.336Z,5.30
2023-02-03T07:52:02.515Z,4.53
2023-02-03T07:54:29.911Z,4.60
2023-02-03T07:56:57.099Z,6.27
2023-02-03T07:59:23.862Z,5.70
2023-02-03T08:01:50.744Z,6.13
2023-02-03T08:04:17.554Z,6.03
2023-02-03T08:06:44.282Z,6.00
2023-02-03T08:09:10.950Z,5.80
2023-02-03T08:11:37.627Z,5.73
2023-02-03T08:14:04.574Z,5.97
2023-02-03T08:16:31.841Z,6.00
2023-02-03T08:18:58.635Z,6.20
2023-02-03T08:21:25.893Z,5.77
2023-02-03T08:23:52.613Z,6.67
2023-02-03T08:26:19.791Z,5.83
2023-02-03T08:28:50.023Z,6.40
2023-02-03T08:31:17.456Z,5.93
2023-02-03T08:33:44.823Z,7.10
2023-02-03T08:36:12.418Z,6.00
2023-02-03T08:38:40.244Z,6.67
2023-02-03T08:41:12.041Z,6.37
2023-02-03T08:43:39.623Z,6.10
2023-02-03T08:46:07.957Z,5.80
2023-02-03T08:48:35.358Z,6.33
2023-02-03T08:51:02.712Z,5.27
2023-02-03T08:53:30.292Z,5.57
2023-02-03T08:55:57.796Z,5.63
2023-02-03T08:58:25.194Z,5.80
2023-02-03T09:00:53.294Z,5.50
2023-02-03T09:03:21.090Z,5.47
2023-02-03T09:05:48.889Z,5.07
2023-02-03T09:08:16.742Z,6.20
2023-02-03T09:10:44.567Z,5.70
2023-02-03T09:13:12.308Z,5.90
2023-02-03T09:15:40.193Z,5.37
2023-02-03T09:18:08.213Z,5.83
2023-02-03T09:20:36.254Z,5.03
2023-02-03T09:23:05.032Z,6.03
2023-02-03T09:25:32.429Z,5.53
2023-02-03T09:28:02.482Z,5.83
2023-02-03T09:30:30.379Z,5.20
2023-02-03T09:32:58.979Z,4.87
2023-02-03T09:35:26.975Z,5.10
2023-02-03T09:37:54.573Z,5.23
2023-02-03T09:40:26.214Z,5.10
2023-02-03T09:42:58.043Z,4.60
2023-02-03T09:45:28.170Z,5.03
2023-02-03T09:47:57.331Z,5.03
2023-02-03T09:50:27.274Z,4.90
2023-02-03T09:52:56.016Z,5.07
2023-02-03T09:55:50.465Z,4.90
2023-02-03T09:58:22.883Z,4.90
2023-02-03T10:00:57.053Z,4.23
2023-02-03T10:03:38.561Z,4.83
2023-02-03T10:06:06.977Z,5.13
2023-02-03T10:08:38.115Z,4.67
2023-02-03T10:11:18.133Z,4.57
2023-02-03T10:13:53.362Z,4.93
2023-02-03T10:16:35.470Z,4.70
2023-02-03T10:19:05.248Z,4.07
2023-02-03T10:21:38.577Z,4.33
2023-02-03T10:24:11.401Z,4.70
2023-02-03T10:26:40.703Z,4.13
2023-02-03T10:29:14.778Z,4.77
2023-02-03T10:31:46.585Z,3.87
2023-02-03T10:34:15.944Z,3.70
2023-02-03T10:36:56.123Z,3.97
2023-02-03T10:39:34.713Z,5.33
2023-02-03T10:42:04.890Z,4.73
2023-02-03T10:44:40.994Z,4.10
2023-02-03T10:47:27.999Z,4.17
2023-02-03T10:49:57.404Z,4.70
2023-02-03T10:52:36.107Z,4.63
2023-02-03T10:55:08.485Z,4.27
2023-02-03T10:57:40.076Z,3.50
2023-02-03T11:00:31.118Z,3.73
2023-02-03T11:03:10.383Z,4.90
2023-02-03T11:05:38.539Z,3.77
2023-02-03T11:08:15.080Z,4.07
2023-02-03T11:10:43.896Z,3.60
2023-02-03T11:13:15.095Z,3.33
2023-02-03T11:15:47.467Z,4.20
2023-02-03T11:18:34.245Z,3.53
2023-02-03T11:21:03.022Z,4.17
2023-02-03T11:23:31.326Z,3.53
2023-02-03T11:25:59.619Z,3.40
2023-02-03T11:28:30.015Z,3.67
2023-02-03T11:30:59.628Z,3.23
2023-02-03T11:33:29.764Z,3.60
2023-02-03T11:36:00.027Z,3.40
2023-02-03T11:38:36.710Z,3.33
2023-02-03T11:41:03.873Z,3.80
2023-02-03T11:43:30.986Z,3.57
2023-02-03T11:46:04.073Z,3.53
2023-02-03T11:48:33.265Z,3.33
2023-02-03T11:51:03.385Z,3.53
2023-02-03T11:53:30.455Z,3.30
2023-02-03T11:56:17.804Z,3.60
2023-02-03T11:59:03.581Z,4.33
2023-02-03T12:01:30.633Z,3.63
2023-02-03T12:04:09.681Z,5.10
2023-02-03T12:06:43.884Z,3.23
2023-02-03T12:09:25.540Z,3.57
2023-02-03T12:11:56.434Z,3.83
2023-02-03T12:14:31.751Z,4.03
2023-02-03T12:16:59.799Z,3.53
2023-02-03T12:19:38.801Z,3.33
2023-02-03T12:22:25.559Z,4.07
2023-02-03T12:25:16.770Z,3.37
2023-02-03T12:27:54.176Z,3.93
2023-02-03T12:30:35.610Z,4.00
2023-02-03T12:33:12.325Z,4.40
2023-02-03T12:36:01.617Z,5.00
2023-02-03T12:38:29.480Z,3.80
2023-02-03T12:41:01.258Z,4.33
2023-02-03T12:43:37.535Z,4.30
2023-02-03T12:46:14.384Z,4.13
2023-02-03T12:48:56.430Z,4.40
2023-02-03T12:51:27.291Z,4.70
2023-02-03T12:53:58.557Z,4.13
2023-02-03T12:56:29.332Z,4.80
2023-02-03T12:59:05.203Z,3.97
2023-02-03T13:01:36.009Z,4.40
2023-02-03T13:04:12.536Z,3.67
2023-02-03T13:06:53.984Z,3.70
2023-02-03T13:09:21.839Z,3.73
2023-02-03T13:12:08.257Z,4.83
2023-02-03T13:14:42.316Z,4.93
2023-02-03T13:17:17.097Z,3.70
2023-02-03T13:19:55.981Z,4.47
2023-02-03T13:22:24.378Z,5.03
2023-02-03T13:24:58.206Z,4.67
2023-02-03T13:27:37.899Z,4.63
2023-02-03T13:30:13.407Z,6.03
2023-02-03T13:32:50.315Z,4.33
2023-02-03T13:35:21.681Z,3.97
2023-02-03T13:37:52.801Z,4.97
2023-02-03T13:40:35.280Z,5.30
2023-02-03T13:43:06.182Z,7.37
2023-02-03T13:45:35.999Z,5.40
2023-02-03T13:48:23.549Z,5.50
2023-02-03T13:50:52.434Z,4.67
2023-02-03T13:53:25.693Z,5.47
2023-02-03T13:55:56.046Z,4.90
2023-02-03T13:58:28.673Z,4.80
2023-02-03T14:00:56.472Z,4.67
2023-02-03T14:03:25.468Z,5.30
2023-02-03T14:05:54.743Z,4.60
2023-02-03T14:08:28.689Z,5.20
2023-02-03T14:11:16.606Z,6.50
2023-02-03T14:13:44.373Z,6.60
2023-02-03T14:16:16.639Z,5.73
2023-02-03T14:18:47.883Z,4.73
2023-02-03T14:21:21.053Z,5.30
2023-02-03T14:23:54.197Z,4.87
2023-02-03T14:26:24.060Z,6.13
2023-02-03T14:28:53.852Z,4.50
2023-02-03T14:31:23.383Z,4.13
2023-02-03T14:33:51.282Z,5.37
2023-02-03T14:36:28.359Z,5.10
2023-02-03T14:38:56.885Z,5.10
2023-02-03T14:41:34.123Z,4.70
2023-02-03T14:44:10.739Z,4.07
2023-02-03T14:46:57.169Z,6.10
2023-02-03T14:49:24.927Z,5.57
2023-02-03T14:52:10.517Z,5.17
2023-02-03T14:54:56.739Z,3.40
2023-02-03T14:57:44.962Z,4.70
2023-02-03T15:00:23.516Z,4.20
2023-02-03T15:03:09.983Z,4.93
2023-02-03T15:05:40.177Z,4.43
2023-02-03T15:08:26.968Z,5.70
2023-02-03T15:10:54.972Z,5.03
2023-02-03T15:13:26.763Z,4.50
2023-02-03T15:15:56.801Z,4.57
2023-02-03T15:18:30.034Z,4.60
2023-02-03T15:20:58.209Z,6.00
2023-02-03T15:23:38.594Z,5.20
2023-02-03T15:26:18.442Z,4.33
2023-02-03T15:28:54.889Z,4.17
2023-02-03T15:31:26.836Z,4.33
2023-02-03T15:33:56.763Z,4.83
2023-02-03T15:36:28.573Z,4.80
2023-02-03T15:39:01.405Z,4.33
2023-02-03T15:41:29.446Z,5.63
2023-02-03T15:44:00.440Z,5.13
2023-02-03T15:46:39.053Z,5.27
2023-02-03T15:49:18.136Z,4.33
2023-02-03T15:51:48.906Z,9.03
2023-02-03T15:54:16.855Z,5.87
2023-02-03T15:56:58.261Z,5.53
2023-02-03T15:59:33.023Z,5.90
2023-02-03T16:02:02.518Z,5.40
2023-02-03T16:04:32.203Z,5.03
2023-02-03T16:07:00.755Z,4.67
2023-02-03T16:09:30.540Z,5.63
2023-02-03T16:12:17.103Z,3.80
2023-02-03T16:14:45.285Z,5.13
2023-02-03T16:17:32.108Z,6.90
2023-02-03T16:20:12.268Z,14.00
2023-02-03T16:22:40.215Z,6.63
2023-02-03T16:25:20.553Z,6.03
2023-02-03T16:28:27.054Z,6.33
2023-02-03T16:31:31.841Z,7.27
2023-02-03T16:34:18.388Z,8.10
2023-02-03T16:37:05.199Z,6.50
2023-02-03T16:39:52.102Z,5.90
2023-02-03T16:42:40.282Z,5.30
2023-02-03T16:45:32.667Z,7.40
2023-02-03T16:48:19.710Z,6.13
2023-02-03T16:50:54.171Z,5.63
2023-02-03T16:53:23.370Z,4.60
2023-02-03T16:55:52.138Z,5.27
2023-02-03T16:58:20.136Z,5.17
2023-02-03T17:00:49.223Z,5.17
2023-02-03T17:03:18.522Z,6.57
2023-02-03T17:05:47.638Z,4.93
2023-02-03T17:08:16.006Z,5.30
2023-02-03T17:10:44.827Z,7.00
2023-02-03T17:13:13.175Z,6.63
2023-02-03T17:15:42.162Z,4.97
2023-02-03T17:18:10.382Z,6.57
2023-02-03T17:20:38.893Z,5.53
2023-02-03T17:23:07.017Z,4.97
2023-02-03T17:25:36.037Z,5.87
2023-02-03T17:28:08.242Z,6.30
2023-02-03T17:30:36.813Z,5.83
2023-02-03T17:33:12.038Z,5.90
2023-02-03T17:35:44.083Z,5.07
2023-02-03T17:38:12.709Z,6.43
2023-02-03T17:54:30.557Z,6.53
2023-02-03T17:56:58.585Z,7.43
2023-02-03T17:59:26.525Z,6.70
2023-02-03T18:01:54.690Z,6.50
2023-02-03T18:04:22.638Z,5.67
2023-02-03T18:06:50.585Z,6.63
2023-02-03T18:09:18.544Z,4.40
2023-02-03T18:11:46.558Z,6.83
2023-02-03T18:14:16.211Z,5.27
2023-02-03T18:16:44.192Z,5.87
2023-02-03T18:19:14.262Z,4.97
2023-02-03T18:21:43.015Z,5.60
2023-02-03T18:24:12.251Z,6.50
2023-02-03T18:26:48.100Z,6.33
2023-02-03T18:29:16.158Z,6.77
2023-02-03T18:31:44.307Z,9.00
2023-02-03T18:34:12.475Z,7.47
2023-02-03T18:39:15.154Z,8.53
2023-02-03T18:41:43.383Z,5.90
2023-02-03T18:44:11.610Z,6.17
2023-02-03T18:46:39.869Z,6.10
2023-02-03T18:49:09.168Z,5.07
2023-02-03T18:51:36.394Z,6.13
2023-02-03T18:54:03.828Z,7.07
2023-02-03T18:56:37.050Z,5.10
2023-02-03T18:59:05.680Z,5.70
2023-02-03T19:01:33.234Z,5.30
2023-02-03T19:04:01.610Z,5.10
2023-02-03T19:06:30.337Z,5.30
2023-02-03T19:08:57.642Z,7.17
2023-02-03T19:11:25.179Z,8.23
2023-02-03T19:13:52.406Z,5.97
2023-02-03T19:16:19.586Z,6.80
2023-02-03T19:18:46.983Z,6.17
2023-02-03T19:21:14.426Z,5.90
2023-02-03T19:23:42.374Z,5.77
2023-02-03T19:26:10.076Z,6.70
2023-02-03T19:28:37.538Z,5.20
2023-02-03T19:31:08.329Z,6.97
2023-02-03T19:33:36.136Z,8.87
2023-02-03T19:36:03.826Z,6.97
2023-02-03T19:38:30.918Z,8.90
2023-02-03T19:40:58.157Z,6.27
2023-02-03T19:43:27.963Z,5.60
2023-02-03T19:45:56.425Z,5.83
2023-02-03T19:48:24.681Z,18.07
2023-02-03T19:50:53.225Z,7.50
2023-02-03T19:53:21.612Z,6.53
2023-02-03T19:55:49.865Z,7.20
2023-02-03T19:58:18.136Z,6.00
2023-02-03T20:00:46.297Z,7.33
2023-02-03T20:03:14.621Z,6.90
2023-02-03T20:05:42.844Z,6.50
2023-02-03T20:08:12.997Z,6.67
2023-02-03T20:10:42.293Z,8.03
2023-02-03T20:13:10.787Z,5.53
2023-02-03T20:15:38.954Z,6.47
2023-02-03T20:18:07.757Z,8.10
2023-02-03T20:20:36.424Z,5.30
2023-02-03T20:23:04.584Z,7.30
2023-02-03T20:25:32.719Z,5.47
2023-02-03T20:28:02.538Z,6.23
2023-02-03T20:30:31.117Z,6.70
2023-02-03T20:32:59.533Z,8.20
2023-02-03T20:35:29.154Z,10.23
2023-02-03T20:37:57.639Z,6.13
2023-02-03T20:40:27.676Z,8.77
2023-02-03T20:42:55.910Z,14.57
2023-02-03T20:45:25.740Z,7.93
2023-02-03T20:47:54.001Z,7.50
2023-02-03T20:50:31.621Z,9.23
2023-02-03T20:53:02.646Z,9.73
2023-02-03T20:55:30.842Z,7.10
2023-02-03T20:58:01.012Z,7.03
2023-02-03T21:00:29.497Z,6.07
2023-02-03T21:03:16.383Z,5.90
2023-02-03T21:05:45.797Z,6.97
2023-02-03T21:08:15.023Z,5.10
2023-02-03T21:10:43.219Z,6.23
2023-02-03T21:13:31.678Z,5.87
2023-02-03T21:16:03.086Z,8.07
2023-02-03T21:18:34.188Z,7.07
2023-02-03T21:21:03.069Z,6.83
2023-02-03T21:23:42.536Z,6.23
2023-02-03T21:26:24.162Z,7.20
2023-02-03T21:28:53.738Z,7.20
2023-02-03T21:31:22.062Z,7.83
2023-02-03T21:33:50.554Z,6.77
2023-02-03T21:36:22.864Z,7.27
2023-02-03T21:38:53.447Z,7.57
2023-02-03T21:41:22.386Z,6.93
2023-02-03T21:43:58.090Z,6.73
2023-02-03T21:46:27.661Z,5.53
2023-02-03T21:48:57.254Z,6.93
2023-02-03T21:51:33.345Z,7.33
2023-02-03T21:54:02.594Z,6.63
2023-02-03T21:56:36.751Z,6.53
2023-02-03T21:59:05.213Z,6.90
2023-02-03T22:01:38.232Z,5.80
2023-02-03T22:04:06.584Z,6.77
2023-02-03T22:06:48.953Z,6.60
2023-02-03T22:09:21.433Z,6.77
2023-02-03T22:11:49.761Z,6.00
2023-02-03T22:14:20.590Z,7.60
2023-02-03T22:16:49.021Z,7.87
2023-02-03T22:19:17.541Z,7.63
2023-02-03T22:21:47.659Z,6.50
2023-02-03T22:24:15.799Z,6.83
2023-02-03T22:26:43.913Z,6.03
2023-02-03T22:29:12.101Z,6.10
2023-02-03T22:31:42.547Z,6.53
2023-02-03T22:34:10.933Z,5.53
2023-02-03T22:36:39.316Z,6.73
2023-02-03T22:39:07.455Z,7.60
2023-02-03T22:41:35.549Z,5.53
2023-02-03T22:44:03.699Z,7.00
2023-02-03T22:46:31.766Z,5.90
2023-02-03T22:48:59.953Z,6.93
2023-02-03T22:51:27.998Z,4.97
2023-02-03T22:53:56.047Z,5.47
2023-02-03T22:56:24.139Z,5.77
2023-02-03T22:58:52.283Z,6.23
2023-02-03T23:01:20.333Z,6.57
2023-02-03T23:03:48.394Z,5.47
2023-02-03T23:06:16.429Z,5.47
2023-02-03T23:08:44.764Z,5.47
2023-02-03T23:11:12.923Z,6.43
2023-02-03T23:13:41.097Z,7.27
2023-02-03T23:16:09.388Z,5.50
2023-02-03T23:18:37.443Z,5.23
2023-02-03T23:21:05.594Z,6.90
2023-02-03T23:23:33.757Z,5.33
2023-02-03T23:26:01.924Z,5.57
2023-02-03T23:28:30.081Z,5.47
2023-02-03T23:30:58.256Z,8.37
2023-02-03T23:33:26.435Z,6.07
2023-02-03T23:35:55.516Z,6.50
2023-02-03T23:38:23.611Z,6.73
2023-02-03T23:40:54.092Z,6.47
2023-02-03T23:43:22.365Z,5.50
2023-02-03T23:45:50.550Z,5.27
2023-02-03T23:48:18.702Z,6.83
2023-02-03T23:50:46.834Z,5.40
2023-02-03T23:53:14.940Z,6.57
2023-02-03T23:55:43.066Z,7.33
2023-02-03T23:58:11.278Z,6.13
